createdAt,value
2022-12-18T00:01:51.570Z,126.88
2022-12-18T00:11:52.885Z,124.65
2022-12-18T00:21:54.172Z,112.20
2022-12-18T00:31:55.903Z,115.32
2022-12-18T00:42:16.063Z,119.63
2022-12-18T00:52:17.319Z,120.63
2022-12-18T01:02:18.737Z,115.55
2022-12-18T01:12:20.177Z,101.43
2022-12-18T01:22:21.443Z,114.38
2022-12-18T01:32:23.002Z,107.03
2022-12-18T01:42:24.264Z,93.05
2022-12-18T01:52:25.547Z,92.38
2022-12-18T02:02:26.889Z,95.65
2022-12-18T02:12:28.208Z,94.40
2022-12-18T02:22:29.622Z,87.20
2022-12-18T02:32:30.871Z,95.60
2022-12-18T02:42:32.376Z,89.50
2022-12-18T02:52:33.646Z,87.13
2022-12-18T03:02:35.045Z,90.97
2022-12-18T03:12:36.453Z,94.57
2022-12-18T03:22:37.973Z,86.40
2022-12-18T03:32:39.254Z,82.38
2022-12-18T03:42:40.524Z,81.18
2022-12-18T03:52:41.797Z,90.82
2022-12-18T04:02:43.185Z,81.95
2022-12-18T04:12:44.509Z,84.32
2022-12-18T04:22:45.842Z,95.72
2022-12-18T04:32:52.053Z,83.07
2022-12-18T04:42:53.764Z,82.03
2022-12-18T04:52:55.116Z,82.72
2022-12-18T05:02:56.484Z,80.40
2022-12-18T05:13:01.383Z,83.25
2022-12-18T05:23:02.860Z,85.40
2022-12-18T05:33:04.144Z,86.68
2022-12-18T05:43:05.433Z,76.88
2022-12-18T05:53:06.725Z,92.45
2022-12-18T06:03:08.146Z,83.15
2022-12-18T06:13:09.565Z,97.32
2022-12-18T06:23:11.021Z,85.55
2022-12-18T06:33:12.304Z,71.53
2022-12-18T06:43:13.566Z,76.35
2022-12-18T06:53:14.849Z,88.70
2022-12-18T07:03:16.107Z,84.97
2022-12-18T07:13:17.360Z,83.35
2022-12-18T07:23:18.689Z,84.93
2022-12-18T07:33:19.951Z,90.88
2022-12-18T07:43:21.201Z,107.50
2022-12-18T07:53:22.556Z,86.10
2022-12-18T08:03:23.903Z,80.18
2022-12-18T08:13:25.198Z,100.10
2022-12-18T08:23:28.731Z,103.32
2022-12-18T08:33:30.276Z,88.90
2022-12-18T08:43:50.368Z,99.00
2022-12-18T08:53:51.676Z,93.53
2022-12-18T09:03:52.987Z,105.13
2022-12-18T09:13:54.859Z,112.65
2022-12-18T09:23:56.180Z,94.43
2022-12-18T09:33:57.725Z,100.35
2022-12-18T09:43:59.000Z,114.05
2022-12-18T09:54:00.265Z,99.72
2022-12-18T10:04:01.723Z,98.50
2022-12-18T10:14:03.043Z,99.70
2022-12-18T10:24:04.306Z,110.75
2022-12-18T10:34:05.553Z,106.18
2022-12-18T10:44:06.814Z,111.38
2022-12-18T10:54:08.055Z,109.82
2022-12-18T11:04:09.600Z,100.43
2022-12-18T11:14:11.408Z,99.28
2022-12-18T11:24:12.663Z,109.88
2022-12-18T11:34:30.479Z,101.20
2022-12-18T11:44:32.009Z,70.18
2022-12-18T11:54:33.288Z,78.22
2022-12-18T12:04:34.605Z,87.93
2022-12-18T12:14:36.265Z,81.32
2022-12-18T12:24:37.554Z,89.28
2022-12-18T12:34:38.835Z,88.60
2022-12-18T12:44:40.118Z,102.07
2022-12-18T12:54:41.390Z,98.18
2022-12-18T13:04:42.801Z,92.65
2022-12-18T13:14:44.198Z,97.53
2022-12-18T13:24:45.444Z,113.30
2022-12-18T13:34:46.878Z,102.32
2022-12-18T13:44:48.186Z,101.82
2022-12-18T13:54:49.492Z,92.22
2022-12-18T14:04:51.975Z,90.37
2022-12-18T14:14:55.325Z,90.50
2022-12-18T14:34:58.099Z,91.00
2022-12-18T14:45:13.372Z,91.47
2022-12-18T14:55:15.523Z,103.70
2022-12-18T15:05:17.839Z,101.25
2022-12-18T15:15:19.098Z,102.53
2022-12-18T15:25:20.388Z,108.65
2022-12-18T15:35:21.664Z,106.38
2022-12-18T15:45:22.896Z,103.40
2022-12-18T15:55:44.017Z,103.30
2022-12-18T16:05:45.296Z,99.00
2022-12-18T16:15:46.602Z,97.45
2022-12-18T16:25:47.965Z,104.00
2022-12-18T16:35:49.215Z,95.25
2022-12-18T16:45:50.551Z,104.88
2022-12-18T16:55:53.019Z,103.50
2022-12-18T17:05:54.310Z,87.40
2022-12-18T17:15:55.622Z,105.03
2022-12-18T17:25:57.036Z,106.55
2022-12-18T17:35:58.282Z,104.63
2022-12-18T17:45:59.519Z,105.75
2022-12-18T17:56:01.579Z,109.75
2022-12-18T18:06:03.060Z,107.38
2022-12-18T18:16:04.407Z,110.90
2022-12-18T18:26:05.729Z,109.28
2022-12-18T18:36:07.228Z,102.05
2022-12-18T18:46:08.755Z,100.82
2022-12-18T19:06:31.418Z,98.43
2022-12-18T19:16:33.665Z,111.00
2022-12-18T19:26:35.235Z,106.05
2022-12-18T19:36:36.542Z,100.20
2022-12-18T19:46:41.443Z,116.25
2022-12-18T19:56:43.385Z,127.68
2022-12-18T20:06:44.697Z,133.93
2022-12-18T20:16:45.977Z,116.28
2022-12-18T20:26:47.641Z,138.77
2022-12-18T20:36:48.918Z,103.85
2022-12-18T20:46:50.377Z,106.57
2022-12-18T20:56:51.618Z,108.25
2022-12-18T21:06:57.990Z,103.13
2022-12-18T21:17:03.633Z,114.70
2022-12-18T21:27:04.984Z,112.50
2022-12-18T21:37:06.578Z,113.65
2022-12-18T21:47:22.933Z,116.93
2022-12-18T21:57:24.671Z,118.05
2022-12-18T22:07:26.623Z,96.57
2022-12-18T22:17:27.914Z,85.00
2022-12-18T22:27:29.379Z,90.78
2022-12-18T22:37:30.656Z,77.72
2022-12-18T22:47:31.888Z,95.65
2022-12-18T22:57:33.150Z,87.88
2022-12-18T23:07:35.963Z,91.97
2022-12-18T23:17:37.234Z,89.00
2022-12-18T23:27:38.498Z,86.70
2022-12-18T23:37:58.616Z,89.13
2022-12-18T23:48:00.332Z,89.32
2022-12-18T23:58:01.621Z,83.00
